createdAt,value
2019-03-29T00:00:07.960Z,2.80
2019-03-29T00:01:07.952Z,2.60
2019-03-29T00:02:07.940Z,2.40
2019-03-29T00:03:08.987Z,2.60
2019-03-29T00:04:07.931Z,2.60
2019-03-29T00:05:07.928Z,2.90
2019-03-29T00:06:07.896Z,2.70
2019-03-29T00:07:07.883Z,2.90
2019-03-29T00:08:09.115Z,2.50
2019-03-29T00:09:07.889Z,2.80
2019-03-29T00:10:07.855Z,2.60
2019-03-29T00:11:07.841Z,2.60
2019-03-29T00:12:07.831Z,2.60
2019-03-29T00:13:07.836Z,2.90
2019-03-29T00:14:07.952Z,2.80
2019-03-29T00:15:08.104Z,2.50
2019-03-29T00:16:07.836Z,2.60
2019-03-29T00:17:07.784Z,2.90
2019-03-29T00:18:07.759Z,2.80
2019-03-29T00:19:07.772Z,3.00
2019-03-29T00:20:07.739Z,2.50
2019-03-29T00:21:07.724Z,2.40
2019-03-29T00:22:07.726Z,2.70
2019-03-29T00:23:07.704Z,2.70
2019-03-29T00:24:07.700Z,2.60
2019-03-29T00:25:07.681Z,3.30
2019-03-29T00:26:07.667Z,2.70
2019-03-29T00:27:07.657Z,2.60
2019-03-29T00:28:07.670Z,2.60
2019-03-29T00:29:07.672Z,2.60
2019-03-29T00:30:07.623Z,2.50
2019-03-29T00:31:07.612Z,2.40
2019-03-29T00:32:07.598Z,2.20
2019-03-29T00:33:07.588Z,2.80
2019-03-29T00:34:07.588Z,2.60
2019-03-29T00:35:08.040Z,2.80
2019-03-29T00:36:07.567Z,2.50
2019-03-29T00:37:07.548Z,2.50
2019-03-29T00:38:07.548Z,2.60
2019-03-29T00:39:07.539Z,2.40
2019-03-29T00:40:07.518Z,2.60
2019-03-29T00:41:07.510Z,2.20
2019-03-29T00:42:07.503Z,2.60
2019-03-29T00:43:08.271Z,2.80
2019-03-29T00:44:07.482Z,2.50
2019-03-29T00:45:07.468Z,2.50
2019-03-29T00:46:07.461Z,2.40
2019-03-29T00:47:07.433Z,2.10
2019-03-29T00:48:07.443Z,2.40
2019-03-29T00:49:07.434Z,2.40
2019-03-29T00:50:07.399Z,2.50
2019-03-29T00:51:07.401Z,2.50
2019-03-29T00:52:07.438Z,2.30
2019-03-29T00:53:07.382Z,2.20
2019-03-29T00:54:07.377Z,2.60
2019-03-29T00:55:07.355Z,2.80
2019-03-29T00:56:07.336Z,2.30
2019-03-29T00:57:07.348Z,2.60
2019-03-29T00:58:07.326Z,2.80
2019-03-29T00:59:07.307Z,2.60
2019-03-29T01:00:07.322Z,2.70
2019-03-29T01:01:07.296Z,2.90
2019-03-29T01:02:07.278Z,2.50
2019-03-29T01:03:07.272Z,2.40
2019-03-29T01:04:07.261Z,2.40
2019-03-29T01:05:07.240Z,2.60
2019-03-29T01:06:07.308Z,2.70
2019-03-29T01:07:07.237Z,2.40
2019-03-29T01:08:09.447Z,2.40
2019-03-29T01:09:07.194Z,2.10
2019-03-29T01:10:07.181Z,2.40
2019-03-29T01:11:07.189Z,2.00
2019-03-29T01:12:07.198Z,2.40
2019-03-29T01:13:07.153Z,2.50
2019-03-29T01:14:07.136Z,2.20
2019-03-29T01:15:07.120Z,2.50
2019-03-29T01:16:07.137Z,2.30
2019-03-29T01:17:07.133Z,2.30
2019-03-29T01:18:07.093Z,2.60
2019-03-29T01:19:07.091Z,2.60
2019-03-29T01:20:07.068Z,2.60
2019-03-29T01:21:07.055Z,2.50
2019-03-29T01:22:07.051Z,2.20
2019-03-29T01:23:07.036Z,2.10
2019-03-29T01:24:07.041Z,2.50
2019-03-29T01:25:08.083Z,2.40
2019-03-29T01:26:06.998Z,2.60
2019-03-29T01:27:06.989Z,2.60
2019-03-29T01:28:06.975Z,2.40
2019-03-29T01:29:06.980Z,2.30
2019-03-29T01:30:06.964Z,2.50
2019-03-29T01:31:06.951Z,2.60
2019-03-29T01:32:07.114Z,2.30
2019-03-29T01:33:06.918Z,2.40
2019-03-29T01:34:06.946Z,2.50
2019-03-29T01:35:06.900Z,2.60
2019-03-29T01:36:06.885Z,2.50
2019-03-29T01:37:06.932Z,2.40
2019-03-29T01:38:20.753Z,2.10
2019-03-29T01:39:07.857Z,2.30
2019-03-29T01:40:06.841Z,2.30
2019-03-29T01:41:06.834Z,2.00
2019-03-29T01:42:06.823Z,2.90
2019-03-29T01:43:06.822Z,2.40
2019-03-29T01:44:06.794Z,2.00
2019-03-29T01:45:06.789Z,2.40
2019-03-29T01:46:06.782Z,2.20
2019-03-29T01:47:06.768Z,2.30
2019-03-29T01:48:06.749Z,2.20
2019-03-29T01:49:06.740Z,2.40
2019-03-29T01:50:08.007Z,2.30
2019-03-29T01:51:06.717Z,2.20
2019-03-29T01:52:06.707Z,2.40
2019-03-29T01:53:06.693Z,2.10
2019-03-29T01:54:06.683Z,2.30
2019-03-29T01:55:06.691Z,2.20
2019-03-29T01:56:06.744Z,2.70
2019-03-29T01:57:06.987Z,2.40
2019-03-29T01:58:06.643Z,2.40
2019-03-29T01:59:06.629Z,2.30
2019-03-29T02:00:06.623Z,2.50
2019-03-29T02:01:06.608Z,2.40
2019-03-29T02:02:06.604Z,2.90
2019-03-29T02:03:06.596Z,2.40
2019-03-29T02:04:08.090Z,2.20
2019-03-29T02:05:06.617Z,2.50
2019-03-29T02:06:06.552Z,2.50
2019-03-29T02:07:06.556Z,2.20
2019-03-29T02:08:06.531Z,2.10
2019-03-29T02:09:06.553Z,2.60
2019-03-29T02:10:06.513Z,2.30
2019-03-29T02:11:06.510Z,2.40
2019-03-29T02:12:07.096Z,2.40
2019-03-29T02:13:06.489Z,2.20
2019-03-29T02:14:06.471Z,2.30
2019-03-29T02:15:06.463Z,2.10
2019-03-29T02:16:06.450Z,2.30
2019-03-29T02:17:06.439Z,2.30
2019-03-29T02:18:06.430Z,2.30
2019-03-29T02:19:06.424Z,2.40
2019-03-29T02:20:06.415Z,2.20
2019-03-29T02:21:06.388Z,2.20
2019-03-29T02:22:06.399Z,2.10
2019-03-29T02:23:06.382Z,2.40
2019-03-29T02:24:06.362Z,2.20
2019-03-29T02:25:06.354Z,2.40
2019-03-29T02:26:06.360Z,2.30
2019-03-29T02:27:06.330Z,2.40
2019-03-29T02:28:06.313Z,2.40
2019-03-29T02:29:06.304Z,2.30
2019-03-29T02:30:06.313Z,2.20
2019-03-29T02:31:06.297Z,2.30
2019-03-29T02:32:06.302Z,2.60
2019-03-29T02:33:06.272Z,2.50
2019-03-29T02:34:06.338Z,2.20
2019-03-29T02:35:06.276Z,2.80
2019-03-29T02:36:06.769Z,2.20
2019-03-29T02:37:06.221Z,2.50
2019-03-29T02:38:06.225Z,2.50
2019-03-29T02:39:06.224Z,2.60
2019-03-29T02:40:06.207Z,2.30
2019-03-29T02:41:06.187Z,2.40
2019-03-29T02:42:06.159Z,2.60
2019-03-29T02:43:06.149Z,2.40
2019-03-29T02:44:06.585Z,2.40
2019-03-29T02:45:06.135Z,2.20
2019-03-29T02:46:06.124Z,2.30
2019-03-29T02:47:06.119Z,2.30
2019-03-29T02:48:06.111Z,2.30
2019-03-29T02:49:06.094Z,2.60
2019-03-29T02:50:06.079Z,2.30
2019-03-29T02:51:06.076Z,2.30
2019-03-29T02:52:06.048Z,2.30
2019-03-29T02:53:06.043Z,2.50
2019-03-29T02:54:06.033Z,2.40
2019-03-29T02:55:06.051Z,2.10
2019-03-29T02:56:06.028Z,2.60
2019-03-29T02:57:05.995Z,2.50
2019-03-29T02:58:05.988Z,2.10
2019-03-29T02:59:05.981Z,2.50
2019-03-29T03:00:05.983Z,2.30
2019-03-29T03:01:05.972Z,2.50
2019-03-29T03:02:05.948Z,2.40
2019-03-29T03:03:05.929Z,2.60
2019-03-29T03:04:05.924Z,2.30
2019-03-29T03:05:05.919Z,2.60
2019-03-29T03:06:05.930Z,2.30
2019-03-29T03:07:05.884Z,2.10
2019-03-29T03:08:05.899Z,2.60
2019-03-29T03:09:13.826Z,2.40
2019-03-29T03:10:06.869Z,2.40
2019-03-29T03:11:05.852Z,2.60
2019-03-29T03:12:05.828Z,2.00
2019-03-29T03:13:05.819Z,2.00
2019-03-29T03:14:05.816Z,2.40
2019-03-29T03:15:05.800Z,2.40
2019-03-29T03:16:05.786Z,2.20
2019-03-29T03:17:05.772Z,2.20
2019-03-29T03:18:05.761Z,2.00
2019-03-29T03:19:05.773Z,2.20
2019-03-29T03:20:05.779Z,2.30
2019-03-29T03:21:05.740Z,2.30
2019-03-29T03:22:05.717Z,2.70
2019-03-29T03:23:05.722Z,2.30
2019-03-29T03:24:05.710Z,2.40
2019-03-29T03:25:05.744Z,2.40
2019-03-29T03:26:05.679Z,2.20
2019-03-29T03:27:05.662Z,2.20
2019-03-29T03:28:05.649Z,2.40
2019-03-29T03:29:05.640Z,2.10
2019-03-29T03:30:05.668Z,2.40
2019-03-29T03:31:05.617Z,2.30
2019-03-29T03:32:05.613Z,2.40
2019-03-29T03:33:05.597Z,2.00
2019-03-29T03:34:05.605Z,2.00
2019-03-29T03:35:05.582Z,2.30
2019-03-29T03:36:05.774Z,2.30
2019-03-29T03:37:05.555Z,3.10
2019-03-29T03:38:05.621Z,2.10
2019-03-29T03:39:05.549Z,2.40
2019-03-29T03:40:05.547Z,2.40
2019-03-29T03:41:05.506Z,2.30
2019-03-29T03:42:05.526Z,2.00
2019-03-29T03:43:05.499Z,2.10
2019-03-29T03:44:05.494Z,2.10
2019-03-29T03:45:05.471Z,2.10
2019-03-29T03:46:05.460Z,2.00
2019-03-29T03:47:05.454Z,2.20
2019-03-29T03:48:05.433Z,2.20
2019-03-29T03:49:05.423Z,2.30
2019-03-29T03:50:05.425Z,2.40
2019-03-29T03:51:05.404Z,2.30
2019-03-29T03:52:05.396Z,2.60
2019-03-29T03:53:05.391Z,2.40
2019-03-29T03:54:05.365Z,2.10
2019-03-29T03:55:05.371Z,2.10
2019-03-29T03:56:05.351Z,2.00
2019-03-29T03:57:05.335Z,2.30
2019-03-29T03:58:05.329Z,2.20
2019-03-29T03:59:05.334Z,2.00
2019-03-29T04:00:05.321Z,2.30
2019-03-29T04:01:05.286Z,2.50
2019-03-29T04:02:05.287Z,2.10
2019-03-29T04:03:05.259Z,2.40
2019-03-29T04:04:05.247Z,2.20
2019-03-29T04:05:05.255Z,2.70
2019-03-29T04:06:05.228Z,2.30
2019-03-29T04:07:05.226Z,3.70
2019-03-29T04:08:05.215Z,2.40
2019-03-29T04:09:05.210Z,2.50
2019-03-29T04:10:05.222Z,2.30
2019-03-29T04:11:05.182Z,2.80
2019-03-29T04:12:05.192Z,2.40
2019-03-29T04:13:05.146Z,2.30
2019-03-29T04:14:05.136Z,2.50
2019-03-29T04:15:05.150Z,2.40
2019-03-29T04:16:05.123Z,2.30
2019-03-29T04:17:05.105Z,2.80
2019-03-29T04:18:05.090Z,2.30
2019-03-29T04:19:05.082Z,2.40
2019-03-29T04:20:05.093Z,2.40
2019-03-29T04:21:05.078Z,2.00
2019-03-29T04:22:05.062Z,2.20
2019-03-29T04:23:05.052Z,2.40
2019-03-29T04:24:05.029Z,2.30
2019-03-29T04:25:05.028Z,2.10
2019-03-29T04:26:05.062Z,2.40
2019-03-29T04:27:05.007Z,2.40
2019-03-29T04:28:05.056Z,2.40
2019-03-29T04:29:05.439Z,2.20
2019-03-29T04:30:04.969Z,2.40
2019-03-29T04:31:04.950Z,2.20
2019-03-29T04:32:04.946Z,2.50
2019-03-29T04:33:04.947Z,2.30
2019-03-29T04:34:04.933Z,2.70
2019-03-29T04:35:04.930Z,2.40
2019-03-29T04:36:04.902Z,2.50
2019-03-29T04:37:04.878Z,2.20
2019-03-29T04:38:04.877Z,2.70
2019-03-29T04:39:04.896Z,2.00
2019-03-29T04:40:07.972Z,2.80
2019-03-29T04:41:04.836Z,2.60
2019-03-29T04:42:04.823Z,2.50
2019-03-29T04:43:04.821Z,2.30
2019-03-29T04:44:04.810Z,2.00
2019-03-29T04:45:04.807Z,3.70
2019-03-29T04:46:04.792Z,2.40
2019-03-29T04:47:04.784Z,2.50
2019-03-29T04:48:04.753Z,2.20
2019-03-29T04:49:04.762Z,2.30
2019-03-29T04:50:04.740Z,2.50
2019-03-29T04:51:04.725Z,2.50
2019-03-29T04:52:04.737Z,2.30
2019-03-29T04:53:04.699Z,2.30
2019-03-29T04:54:04.688Z,2.40
2019-03-29T04:55:04.720Z,2.10
2019-03-29T04:56:04.664Z,3.20
2019-03-29T04:57:04.652Z,2.40
2019-03-29T04:58:04.641Z,2.10
2019-03-29T04:59:04.631Z,2.10
2019-03-29T05:00:04.648Z,2.40
2019-03-29T05:01:04.612Z,2.10
2019-03-29T05:02:04.608Z,2.50
2019-03-29T05:03:04.598Z,2.90
2019-03-29T05:04:04.638Z,2.30
2019-03-29T05:05:04.581Z,2.40
2019-03-29T05:06:04.600Z,2.30
2019-03-29T05:07:04.545Z,3.00
2019-03-29T05:08:04.531Z,2.30
2019-03-29T05:09:04.528Z,3.50
2019-03-29T05:10:04.510Z,2.40
2019-03-29T05:11:04.518Z,2.40
2019-03-29T05:12:04.487Z,2.10
2019-03-29T05:13:04.488Z,2.10
2019-03-29T05:14:04.469Z,2.20
2019-03-29T05:15:04.466Z,2.40
2019-03-29T05:16:04.449Z,2.30
2019-03-29T05:17:04.432Z,2.20
2019-03-29T05:18:04.725Z,2.40
2019-03-29T05:19:04.414Z,2.20
2019-03-29T05:20:04.401Z,2.10
2019-03-29T05:21:04.395Z,2.30
2019-03-29T05:22:04.383Z,2.40
2019-03-29T05:23:04.436Z,2.20
2019-03-29T05:24:04.377Z,2.30
2019-03-29T05:25:04.359Z,2.00
2019-03-29T05:26:04.338Z,2.20
2019-03-29T05:27:04.330Z,2.10
2019-03-29T05:28:04.335Z,2.10
2019-03-29T05:29:04.310Z,2.30
2019-03-29T05:30:04.304Z,2.30
2019-03-29T05:31:04.297Z,2.00
2019-03-29T05:32:04.278Z,2.10
2019-03-29T05:33:04.263Z,2.20
2019-03-29T05:34:04.264Z,1.90
2019-03-29T05:35:04.245Z,1.90
2019-03-29T05:36:04.249Z,2.20
2019-03-29T05:37:04.240Z,2.20
2019-03-29T05:38:04.211Z,2.00
2019-03-29T05:39:04.195Z,2.10
2019-03-29T05:40:04.181Z,2.00
2019-03-29T05:41:04.221Z,2.00
2019-03-29T05:42:04.154Z,2.00
2019-03-29T05:43:04.155Z,2.00
2019-03-29T05:44:04.141Z,2.00
2019-03-29T05:45:04.128Z,2.10
2019-03-29T05:46:04.129Z,2.30
2019-03-29T05:47:04.115Z,2.10
2019-03-29T05:48:04.092Z,2.10
2019-03-29T05:49:04.080Z,2.10
2019-03-29T05:50:04.071Z,2.40
2019-03-29T05:51:04.084Z,2.00
2019-03-29T05:52:04.070Z,2.10
2019-03-29T05:53:04.036Z,1.90
2019-03-29T05:54:04.031Z,2.30
2019-03-29T05:55:04.027Z,2.40
2019-03-29T05:56:04.016Z,1.90
2019-03-29T05:57:04.005Z,2.00
2019-03-29T05:58:03.991Z,2.10
2019-03-29T05:59:04.020Z,2.00
2019-03-29T06:00:03.963Z,2.10
2019-03-29T06:01:03.986Z,2.10
2019-03-29T06:02:03.944Z,1.90
2019-03-29T06:03:03.928Z,1.80
2019-03-29T06:04:03.921Z,2.20
2019-03-29T06:05:03.923Z,2.20
2019-03-29T06:06:03.894Z,2.20
2019-03-29T06:07:03.901Z,1.90
2019-03-29T06:08:03.868Z,2.10
2019-03-29T06:09:03.854Z,2.00
2019-03-29T06:10:03.988Z,2.20
2019-03-29T06:11:03.837Z,2.00
2019-03-29T06:12:03.833Z,2.00
2019-03-29T06:13:03.812Z,2.10
2019-03-29T06:14:03.799Z,2.00
2019-03-29T06:15:03.806Z,2.20
2019-03-29T06:16:06.197Z,2.30
2019-03-29T06:17:03.789Z,2.80
2019-03-29T06:18:03.768Z,1.90
2019-03-29T06:19:03.811Z,2.00
2019-03-29T06:20:03.825Z,2.10
2019-03-29T06:21:03.730Z,2.50
2019-03-29T06:22:03.725Z,1.90
2019-03-29T06:23:03.743Z,2.00
2019-03-29T06:24:03.697Z,2.40
2019-03-29T06:25:03.689Z,2.30
2019-03-29T06:26:03.687Z,2.00
2019-03-29T06:27:03.673Z,2.40
2019-03-29T06:28:03.652Z,2.10
2019-03-29T06:29:03.635Z,2.00
2019-03-29T06:30:03.636Z,2.70
2019-03-29T06:31:03.615Z,2.20
2019-03-29T06:32:03.599Z,2.00
2019-03-29T06:33:03.589Z,2.10
2019-03-29T06:34:03.577Z,2.00
2019-03-29T06:35:03.586Z,2.00
2019-03-29T06:36:03.568Z,2.60
2019-03-29T06:37:03.557Z,2.00
2019-03-29T06:38:03.546Z,2.90
2019-03-29T06:39:03.530Z,4.70
2019-03-29T06:40:03.541Z,5.50
2019-03-29T06:41:03.797Z,5.90
2019-03-29T06:42:03.495Z,8.30
2019-03-29T06:43:03.483Z,7.20
2019-03-29T06:44:03.476Z,9.70
2019-03-29T06:45:03.481Z,7.40
2019-03-29T06:46:03.484Z,11.50
2019-03-29T06:47:03.436Z,9.40
2019-03-29T06:48:03.431Z,9.20
2019-03-29T06:49:03.427Z,8.90
2019-03-29T06:50:03.402Z,11.90
2019-03-29T06:51:03.407Z,11.30
2019-03-29T06:52:03.401Z,10.20
2019-03-29T06:53:03.392Z,10.90
2019-03-29T06:54:03.377Z,10.90
2019-03-29T06:55:03.361Z,14.40
2019-03-29T06:56:03.339Z,11.70
2019-03-29T06:57:03.331Z,11.50
2019-03-29T06:58:03.582Z,10.80
2019-03-29T06:59:03.314Z,8.50
2019-03-29T07:00:03.304Z,10.70
2019-03-29T07:01:03.307Z,8.20
2019-03-29T07:02:03.275Z,6.20
2019-03-29T07:03:03.272Z,7.10
2019-03-29T07:04:03.268Z,6.00
2019-03-29T07:05:03.238Z,6.80
2019-03-29T07:06:03.235Z,7.30
2019-03-29T07:07:03.216Z,6.20
2019-03-29T07:08:03.214Z,6.70
2019-03-29T07:09:03.199Z,8.60
2019-03-29T07:10:03.185Z,10.20
2019-03-29T07:11:16.610Z,7.40
2019-03-29T07:12:04.155Z,6.20
2019-03-29T07:13:03.148Z,7.00
2019-03-29T07:14:03.135Z,8.10
2019-03-29T07:15:03.144Z,5.90
2019-03-29T07:16:03.135Z,6.60
2019-03-29T07:17:03.104Z,6.20
2019-03-29T07:18:03.106Z,5.80
2019-03-29T07:19:05.008Z,7.80
2019-03-29T07:20:03.071Z,5.30
2019-03-29T07:21:03.082Z,6.10
2019-03-29T07:22:03.049Z,5.80
2019-03-29T07:23:03.035Z,7.20
2019-03-29T07:24:03.021Z,5.70
2019-03-29T07:25:03.013Z,7.50
2019-03-29T07:26:03.031Z,6.20
2019-03-29T07:27:02.999Z,7.00
2019-03-29T07:28:02.983Z,6.10
2019-03-29T07:29:02.969Z,6.00
2019-03-29T07:30:02.960Z,7.70
2019-03-29T07:31:02.952Z,7.00
2019-03-29T07:32:02.944Z,6.10
2019-03-29T07:33:02.933Z,6.20
2019-03-29T07:34:02.932Z,4.70
2019-03-29T07:35:02.901Z,6.40
2019-03-29T07:36:02.916Z,6.30
2019-03-29T07:37:05.652Z,4.30
2019-03-29T07:38:02.876Z,3.80
2019-03-29T07:39:02.861Z,3.30
2019-03-29T07:40:02.867Z,6.20
2019-03-29T07:41:02.858Z,3.60
2019-03-29T07:42:02.838Z,3.90
2019-03-29T07:43:02.813Z,3.90
2019-03-29T07:44:02.811Z,2.90
2019-03-29T07:45:02.796Z,2.80
2019-03-29T07:46:02.790Z,3.90
2019-03-29T07:47:02.771Z,2.30
2019-03-29T07:48:02.780Z,2.40
2019-03-29T07:49:02.755Z,2.00
2019-03-29T07:50:02.740Z,3.10
2019-03-29T07:51:02.759Z,2.60
2019-03-29T07:52:02.724Z,2.50
2019-03-29T07:53:02.699Z,2.50
2019-03-29T07:54:02.695Z,2.50
2019-03-29T07:55:02.684Z,2.40
2019-03-29T07:56:02.681Z,1.90
2019-03-29T07:57:02.676Z,2.40
2019-03-29T07:58:02.655Z,2.00
2019-03-29T07:59:02.646Z,2.20
2019-03-29T08:00:02.626Z,2.00
2019-03-29T08:01:02.613Z,2.20
2019-03-29T08:02:02.818Z,2.10
2019-03-29T08:03:02.597Z,2.00
2019-03-29T08:04:02.606Z,2.00
2019-03-29T08:05:02.576Z,2.00
2019-03-29T08:06:02.575Z,2.10
2019-03-29T08:07:02.547Z,2.00
2019-03-29T08:08:02.543Z,3.10
2019-03-29T08:09:02.524Z,2.20
2019-03-29T08:10:04.009Z,2.30
2019-03-29T08:11:02.508Z,1.80
2019-03-29T08:12:02.522Z,1.80
2019-03-29T08:13:02.475Z,2.10
2019-03-29T08:14:02.473Z,2.20
2019-03-29T08:15:02.469Z,1.80
2019-03-29T08:16:02.442Z,2.30
2019-03-29T08:17:02.437Z,2.20
2019-03-29T08:18:02.430Z,3.60
2019-03-29T08:19:02.426Z,1.60
2019-03-29T08:20:36.318Z,1.70
2019-03-29T08:21:03.402Z,1.70
2019-03-29T08:22:02.386Z,2.00
2019-03-29T08:23:02.380Z,1.80
2019-03-29T08:24:02.361Z,1.80
2019-03-29T08:25:02.341Z,2.50
2019-03-29T08:26:02.349Z,1.80
2019-03-29T08:27:02.329Z,2.20
2019-03-29T08:28:02.310Z,1.50
2019-03-29T08:29:02.306Z,1.70
2019-03-29T08:30:02.295Z,1.60
2019-03-29T08:31:02.294Z,2.00
2019-03-29T08:32:02.285Z,1.60
2019-03-29T08:33:02.249Z,1.80
2019-03-29T08:34:02.244Z,2.40
2019-03-29T08:35:02.230Z,2.30
2019-03-29T08:36:02.236Z,1.70
2019-03-29T08:37:02.213Z,2.00
2019-03-29T08:38:02.196Z,2.70
2019-03-29T08:39:02.186Z,2.40
2019-03-29T08:40:02.175Z,1.80
2019-03-29T08:41:02.163Z,1.70
2019-03-29T08:42:02.190Z,1.80
2019-03-29T08:43:02.158Z,1.60
2019-03-29T08:44:02.145Z,2.00
2019-03-29T08:45:02.140Z,2.20
2019-03-29T08:46:02.112Z,1.70
2019-03-29T08:47:02.106Z,1.90
2019-03-29T08:48:02.423Z,1.60
2019-03-29T08:49:02.078Z,2.10
2019-03-29T08:50:02.084Z,1.60
2019-03-29T08:51:02.067Z,1.60
2019-03-29T08:52:02.092Z,1.70
2019-03-29T08:53:02.042Z,1.60
2019-03-29T08:54:02.059Z,1.70
2019-03-29T08:55:02.020Z,1.60
2019-03-29T08:56:02.014Z,1.60
2019-03-29T08:57:02.026Z,1.40
2019-03-29T08:58:01.995Z,1.30
2019-03-29T08:59:01.970Z,2.00
2019-03-29T09:00:01.981Z,2.00
2019-03-29T09:01:01.948Z,1.70
2019-03-29T09:02:01.952Z,1.70
2019-03-29T09:03:01.933Z,1.50
2019-03-29T09:04:05.647Z,1.60
2019-03-29T09:05:01.901Z,1.80
2019-03-29T09:06:01.889Z,1.70
2019-03-29T09:07:01.886Z,1.70
2019-03-29T09:08:01.881Z,1.60
2019-03-29T09:09:01.873Z,1.70
2019-03-29T09:10:01.863Z,1.80
2019-03-29T09:11:01.841Z,1.80
2019-03-29T09:12:13.640Z,1.70
2019-03-29T09:13:04.593Z,1.70
2019-03-29T09:14:01.831Z,1.70
2019-03-29T09:15:03.589Z,1.60
2019-03-29T09:16:01.795Z,2.10
2019-03-29T09:17:01.798Z,3.80
2019-03-29T09:18:01.774Z,2.10
2019-03-29T09:19:01.761Z,1.60
2019-03-29T09:20:01.743Z,1.70
2019-03-29T09:21:01.726Z,1.60
2019-03-29T09:22:01.730Z,1.40
2019-03-29T09:23:01.714Z,1.60
2019-03-29T09:24:01.702Z,1.90
2019-03-29T09:25:01.711Z,2.30
2019-03-29T09:26:01.808Z,1.80
2019-03-29T09:27:01.773Z,1.70
2019-03-29T09:28:01.653Z,1.80
2019-03-29T09:29:01.637Z,1.50
2019-03-29T09:30:04.973Z,2.00
2019-03-29T09:31:01.629Z,3.00
2019-03-29T09:32:01.709Z,1.50
2019-03-29T09:33:01.608Z,1.50
2019-03-29T09:34:01.590Z,1.70
2019-03-29T09:35:01.576Z,1.60
2019-03-29T09:36:04.847Z,2.50
2019-03-29T09:37:01.565Z,1.40
2019-03-29T09:38:01.578Z,1.80
2019-03-29T09:39:01.547Z,1.50
2019-03-29T09:40:01.534Z,1.50
2019-03-29T09:41:01.523Z,1.50
2019-03-29T09:42:01.536Z,1.70
2019-03-29T09:43:08.817Z,1.50
2019-03-29T09:44:02.509Z,1.90
2019-03-29T09:45:01.483Z,1.50
2019-03-29T09:46:03.282Z,1.40
2019-03-29T09:47:01.442Z,2.80
2019-03-29T09:48:01.441Z,1.80
2019-03-29T09:49:01.432Z,1.50
2019-03-29T09:50:01.409Z,1.60
2019-03-29T09:51:01.397Z,3.20
2019-03-29T09:52:01.400Z,4.50
2019-03-29T09:53:01.819Z,2.30
2019-03-29T09:54:01.362Z,2.00
2019-03-29T09:55:01.379Z,2.10
2019-03-29T09:56:01.349Z,2.60
2019-03-29T09:57:01.333Z,1.40
2019-03-29T09:58:01.330Z,1.60
2019-03-29T09:59:01.306Z,3.40
2019-03-29T10:00:01.297Z,4.60
2019-03-29T10:01:01.286Z,2.20
2019-03-29T10:02:01.283Z,3.90
2019-03-29T10:03:01.301Z,1.80
2019-03-29T10:04:01.253Z,4.60
2019-03-29T10:05:01.245Z,1.60
2019-03-29T10:06:01.245Z,1.50
2019-03-29T10:07:01.228Z,2.20
2019-03-29T10:08:01.235Z,1.70
2019-03-29T10:09:01.241Z,2.90
2019-03-29T10:10:01.190Z,4.10
2019-03-29T10:11:01.186Z,2.00
2019-03-29T10:12:01.180Z,2.60
2019-03-29T10:13:01.153Z,2.40
2019-03-29T10:14:01.151Z,1.40
2019-03-29T10:15:01.134Z,1.80
2019-03-29T10:16:01.127Z,3.00
2019-03-29T10:17:01.460Z,1.60
2019-03-29T10:18:01.103Z,1.40
2019-03-29T10:19:01.093Z,1.40
2019-03-29T10:20:01.105Z,2.10
2019-03-29T10:21:01.072Z,2.90
2019-03-29T10:22:01.065Z,2.00
2019-03-29T10:23:01.063Z,2.20
2019-03-29T10:24:01.034Z,1.70
2019-03-29T10:25:02.496Z,3.20
2019-03-29T10:26:01.010Z,1.80
2019-03-29T10:27:01.009Z,1.50
2019-03-29T10:28:01.000Z,1.40
2019-03-29T10:29:00.984Z,3.10
2019-03-29T10:30:00.979Z,2.30
2019-03-29T10:31:00.960Z,1.60
2019-03-29T10:32:00.963Z,3.60
2019-03-29T10:33:00.938Z,1.60
2019-03-29T10:34:00.926Z,4.00
2019-03-29T10:35:00.948Z,2.20
2019-03-29T10:36:00.903Z,1.60
2019-03-29T10:37:00.907Z,1.70
2019-03-29T10:38:00.887Z,3.50
2019-03-29T10:39:00.874Z,1.70
2019-03-29T10:40:00.862Z,1.50
2019-03-29T10:41:00.851Z,1.80
2019-03-29T10:42:00.849Z,2.60
2019-03-29T10:43:00.828Z,1.80
2019-03-29T10:44:00.819Z,3.50
2019-03-29T10:45:00.809Z,1.40
2019-03-29T10:46:00.820Z,2.90
2019-03-29T10:47:00.792Z,2.50
2019-03-29T10:48:00.779Z,2.10
2019-03-29T10:49:00.761Z,4.10
2019-03-29T10:50:00.750Z,1.50
2019-03-29T10:51:00.758Z,1.70
2019-03-29T10:52:00.751Z,1.90
2019-03-29T10:53:00.716Z,1.60
2019-03-29T10:54:00.709Z,1.40
2019-03-29T10:55:00.700Z,1.90
2019-03-29T10:56:00.698Z,1.80
2019-03-29T10:57:00.681Z,1.70
2019-03-29T10:58:00.662Z,1.80
2019-03-29T10:59:00.650Z,1.70
2019-03-29T11:00:00.648Z,2.50
2019-03-29T11:01:00.632Z,2.60
2019-03-29T11:02:00.634Z,3.80
2019-03-29T11:03:00.614Z,1.80
2019-03-29T11:04:00.597Z,4.50
2019-03-29T11:05:00.591Z,2.90
2019-03-29T11:06:00.588Z,1.60
2019-03-29T11:07:00.959Z,2.60
2019-03-29T11:08:00.581Z,3.60
2019-03-29T11:09:00.554Z,2.50
2019-03-29T11:10:00.532Z,1.90
2019-03-29T11:11:00.523Z,1.50
2019-03-29T11:12:00.515Z,4.90
2019-03-29T11:13:11.707Z,1.80
2019-03-29T11:14:01.484Z,1.50
2019-03-29T11:15:00.478Z,1.60
2019-03-29T11:16:00.464Z,1.70
2019-03-29T11:17:00.464Z,1.60
2019-03-29T11:18:00.449Z,1.50
2019-03-29T11:19:00.436Z,1.70
2019-03-29T11:20:00.427Z,2.50
2019-03-29T11:21:00.415Z,1.60
2019-03-29T11:22:00.420Z,2.10
2019-03-29T11:23:00.394Z,6.70
2019-03-29T11:24:00.379Z,2.90
2019-03-29T11:25:00.453Z,2.80
2019-03-29T11:26:00.360Z,1.60
2019-03-29T11:27:00.348Z,3.80
2019-03-29T11:28:00.673Z,2.50
2019-03-29T11:29:00.356Z,1.60
2019-03-29T11:30:01.217Z,1.90
2019-03-29T11:31:00.539Z,1.70
2019-03-29T11:32:00.405Z,1.60
2019-03-29T11:33:00.345Z,1.70
2019-03-29T11:34:00.378Z,2.20
2019-03-29T11:35:00.426Z,2.50
2019-03-29T11:36:00.268Z,2.00
2019-03-29T11:37:00.304Z,1.60
2019-03-29T11:38:00.579Z,1.80
2019-03-29T11:39:00.290Z,1.70
2019-03-29T11:40:00.271Z,1.60
2019-03-29T11:41:00.198Z,3.20
2019-03-29T11:42:03.318Z,1.70
2019-03-29T11:43:00.632Z,1.50
2019-03-29T11:44:00.231Z,2.20
2019-03-29T11:45:00.394Z,2.30
2019-03-29T11:46:00.378Z,1.60
2019-03-29T11:47:00.445Z,1.70
2019-03-29T11:48:08.306Z,3.30
2019-03-29T11:49:01.287Z,1.70
2019-03-29T11:50:00.277Z,1.60
2019-03-29T11:51:00.206Z,2.50
2019-03-29T11:52:00.107Z,2.50
2019-03-29T11:53:00.199Z,1.90
2019-03-29T11:54:00.264Z,2.50
2019-03-29T11:55:00.420Z,1.90
2019-03-29T11:56:00.331Z,2.80
2019-03-29T11:57:00.252Z,2.70
2019-03-29T11:58:00.055Z,2.20
2019-03-29T11:59:00.268Z,1.60
2019-03-29T11:59:59.993Z,2.00
2019-03-29T12:01:00.146Z,1.70
2019-03-29T12:02:00.002Z,2.80
2019-03-29T12:03:00.042Z,1.80
2019-03-29T12:03:59.962Z,1.50
2019-03-29T12:04:59.952Z,3.20
2019-03-29T12:05:59.949Z,1.70
2019-03-29T12:07:03.320Z,1.40
2019-03-29T12:07:59.970Z,1.50
2019-03-29T12:09:00.063Z,1.90
2019-03-29T12:09:59.953Z,2.30
2019-03-29T12:11:00.002Z,1.50
2019-03-29T12:11:59.874Z,1.50
2019-03-29T12:12:59.873Z,4.20
2019-03-29T12:13:59.922Z,1.50
2019-03-29T12:14:59.925Z,1.40
2019-03-29T12:15:59.837Z,1.40
2019-03-29T12:16:59.835Z,1.80
2019-03-29T12:17:59.829Z,3.10
2019-03-29T12:18:59.797Z,1.40
2019-03-29T12:19:59.811Z,2.60
2019-03-29T12:20:59.953Z,1.20
2019-03-29T12:21:59.769Z,2.50
2019-03-29T12:23:00.322Z,2.80
2019-03-29T12:23:59.925Z,2.80
2019-03-29T12:24:59.798Z,1.10
2019-03-29T12:25:59.782Z,1.20
2019-03-29T12:26:59.853Z,1.00
2019-03-29T12:27:59.860Z,1.00
2019-03-29T12:28:59.717Z,1.20
2019-03-29T12:29:59.774Z,1.50
2019-03-29T12:30:59.847Z,1.00
2019-03-29T12:31:59.705Z,1.10
2019-03-29T12:32:59.667Z,1.00
2019-03-29T12:33:59.719Z,1.00
2019-03-29T12:34:59.626Z,1.10
2019-03-29T12:35:59.619Z,1.00
2019-03-29T12:36:59.688Z,1.00
2019-03-29T12:37:59.733Z,1.00
2019-03-29T12:38:59.631Z,1.00
2019-03-29T12:39:59.717Z,1.00
2019-03-29T12:40:59.556Z,0.90
2019-03-29T12:41:59.729Z,1.10
2019-03-29T12:42:59.590Z,2.00
2019-03-29T12:43:59.605Z,0.80
2019-03-29T12:44:59.824Z,1.00
2019-03-29T12:45:59.660Z,1.50
2019-03-29T12:46:59.564Z,1.10
2019-03-29T12:48:00.350Z,1.00
2019-03-29T12:49:00.468Z,0.90
2019-03-29T12:50:00.573Z,0.70
2019-03-29T12:50:59.547Z,0.80
2019-03-29T12:51:59.470Z,0.90
2019-03-29T12:52:59.506Z,0.90
2019-03-29T12:53:59.578Z,0.80
2019-03-29T12:54:59.407Z,0.90
2019-03-29T12:56:00.066Z,0.80
2019-03-29T12:56:59.411Z,0.80
2019-03-29T12:57:59.534Z,1.00
2019-03-29T12:59:00.498Z,0.80
2019-03-29T12:59:59.498Z,0.90
2019-03-29T13:00:59.514Z,0.70
2019-03-29T13:01:59.607Z,0.90
2019-03-29T13:02:59.491Z,0.80
2019-03-29T13:03:59.291Z,3.10
2019-03-29T13:04:59.273Z,1.40
2019-03-29T13:05:59.261Z,0.80
2019-03-29T13:06:59.251Z,0.80
2019-03-29T13:07:59.267Z,0.90
2019-03-29T13:08:59.230Z,2.10
2019-03-29T13:09:59.225Z,1.00
2019-03-29T13:10:59.226Z,1.40
2019-03-29T13:11:59.198Z,0.90
2019-03-29T13:13:00.720Z,0.90
2019-03-29T13:14:10.139Z,0.90
2019-03-29T13:15:00.375Z,1.10
2019-03-29T13:15:59.169Z,1.00
2019-03-29T13:17:02.595Z,1.10
2019-03-29T13:17:59.142Z,1.00